USTRANSCOM 7588


KWRI
Joint Base McGuire Dix Lakehurst
Wrightstown, New Jersey, US
LPLA
Lajes Air Base
Terceira, , PT

Activity Log

Date Flight Route Aircraft Duration
05/15/2019 CMB808 PTPL5 MANTA DOVEY 42N060W 42N050W 41N040W KOLIT H141 FRS H124 LM B752 4h 46m

Route Details

Aircraft Information
Primary: Boeing 757-200SF
Backup: Not Available
Route Data
Distance: 2185nm
Sched. Duration: 4h 29m
Avg. Duration: 4h 46m (+16m)
Times Flown: 1
Recm'd Route: Not Available
Planned Altitude: 33,000ft
Origin Wx: KWRI 290356Z AUTO 00000KT 10SM OVC029 14/11 A2998 RMK AO2 SLP152 T01390111
Dest. Wx: LPLA 290300Z /////KT 9999 SCT020 18/17 Q1016
Notes: USTRANSCOM CONTRACT FLIGHT

Financial History
Total Freight: 55,801lbs
Average Load: 55,801lbs/flt
Fuel Used: 40,411lbs
Avg. Fuel Used: 40,411lbs/flt
Fuel Expense: $40,007
Avg. Fuel Expense: $40,007
Avg. Fuel Cost: $0.99/lbs
Total Gross Income: $104,906
Pilot Pay: $229
Total Expenses: $11,382
Total Revenue: $52,378
Average Revenue: $104,905.88